sensor_id;sensor_type;location;lat;lon;timestamp;P1;durP1;ratioP1;P2;durP2;ratioP2
595;SDS011;19946;49.306;11.350;2022-07-21T00:02:17;4.87;;;4.67;;
595;SDS011;19946;49.306;11.350;2022-07-21T00:05:17;6.27;;;5.77;;
595;SDS011;19946;49.306;11.350;2022-07-21T00:08:19;5.50;;;5.20;;
595;SDS011;19946;49.306;11.350;2022-07-21T00:11:19;4.37;;;4.27;;
595;SDS011;19946;49.306;11.350;2022-07-21T00:14:19;4.10;;;4.00;;
595;SDS011;19946;49.306;11.350;2022-07-21T00:17:20;5.90;;;5.60;;
595;SDS011;19946;49.306;11.350;2022-07-21T00:20:20;6.17;;;5.90;;
595;SDS011;19946;49.306;11.350;2022-07-21T00:23:22;7.00;;;6.53;;
595;SDS011;19946;49.306;11.350;2022-07-21T00:26:23;7.07;;;6.67;;
595;SDS011;19946;49.306;11.350;2022-07-21T00:29:24;7.13;;;6.67;;
595;SDS011;19946;49.306;11.350;2022-07-21T00:32:24;5.53;;;5.33;;
595;SDS011;19946;49.306;11.350;2022-07-21T00:35:25;4.97;;;4.83;;
595;SDS011;19946;49.306;11.350;2022-07-21T00:38:25;4.07;;;4.00;;
595;SDS011;19946;49.306;11.350;2022-07-21T00:41:26;5.10;;;4.90;;
595;SDS011;19946;49.306;11.350;2022-07-21T00:44:26;6.10;;;5.90;;
595;SDS011;19946;49.306;11.350;2022-07-21T00:47:28;4.80;;;4.70;;
595;SDS011;19946;49.306;11.350;2022-07-21T00:50:30;4.33;;;4.23;;
595;SDS011;19946;49.306;11.350;2022-07-21T00:53:31;6.03;;;5.77;;
595;SDS011;19946;49.306;11.350;2022-07-21T00:56:32;5.10;;;5.00;;
595;SDS011;19946;49.306;11.350;2022-07-21T00:59:33;4.30;;;4.30;;
595;SDS011;19946;49.306;11.350;2022-07-21T01:02:33;4.20;;;4.20;;
595;SDS011;19946;49.306;11.350;2022-07-21T01:05:36;5.70;;;5.50;;
595;SDS011;19946;49.306;11.350;2022-07-21T01:08:36;4.80;;;4.70;;
595;SDS011;19946;49.306;11.350;2022-07-21T01:11:37;4.23;;;4.20;;
595;SDS011;19946;49.306;11.350;2022-07-21T01:14:38;4.10;;;4.00;;
595;SDS011;19946;49.306;11.350;2022-07-21T01:17:38;4.27;;;4.17;;
595;SDS011;19946;49.306;11.350;2022-07-21T01:20:39;5.03;;;4.93;;
595;SDS011;19946;49.306;11.350;2022-07-21T01:23:44;3.70;;;3.70;;
595;SDS011;19946;49.306;11.350;2022-07-21T01:26:46;4.30;;;3.90;;
595;SDS011;19946;49.306;11.350;2022-07-21T01:29:48;24.90;;;7.23;;
595;SDS011;19946;49.306;11.350;2022-07-21T01:32:49;20.43;;;6.30;;
595;SDS011;19946;49.306;11.350;2022-07-21T01:35:49;8.00;;;4.30;;
595;SDS011;19946;49.306;11.350;2022-07-21T01:38:50;12.33;;;4.67;;
595;SDS011;19946;49.306;11.350;2022-07-21T01:42:09;12.60;;;4.70;;
595;SDS011;19946;49.306;11.350;2022-07-21T01:45:09;13.77;;;5.17;;
595;SDS011;19946;49.306;11.350;2022-07-21T01:48:10;21.40;;;6.13;;
595;SDS011;19946;49.306;11.350;2022-07-21T01:51:11;28.60;;;7.10;;
595;SDS011;19946;49.306;11.350;2022-07-21T01:54:11;10.53;;;4.07;;
595;SDS011;19946;49.306;11.350;2022-07-21T01:57:12;9.70;;;3.97;;
595;SDS011;19946;49.306;11.350;2022-07-21T02:00:13;48.40;;;10.40;;
595;SDS011;19946;49.306;11.350;2022-07-21T02:03:13;34.87;;;8.57;;
595;SDS011;19946;49.306;11.350;2022-07-21T02:06:14;13.50;;;4.80;;
595;SDS011;19946;49.306;11.350;2022-07-21T02:09:14;9.00;;;4.00;;
595;SDS011;19946;49.306;11.350;2022-07-21T02:12:15;16.87;;;5.40;;
595;SDS011;19946;49.306;11.350;2022-07-21T02:15:15;22.10;;;5.97;;
595;SDS011;19946;49.306;11.350;2022-07-21T02:18:17;7.03;;;3.47;;
595;SDS011;19946;49.306;11.350;2022-07-21T02:21:18;8.07;;;3.60;;
595;SDS011;19946;49.306;11.350;2022-07-21T02:24:18;20.30;;;5.80;;
595;SDS011;19946;49.306;11.350;2022-07-21T02:27:18;21.83;;;6.17;;
595;SDS011;19946;49.306;11.350;2022-07-21T02:30:19;10.40;;;4.47;;
595;SDS011;19946;49.306;11.350;2022-07-21T02:33:19;7.13;;;3.73;;
595;SDS011;19946;49.306;11.350;2022-07-21T02:36:20;7.37;;;3.57;;
595;SDS011;19946;49.306;11.350;2022-07-21T02:39:21;22.43;;;6.13;;
595;SDS011;19946;49.306;11.350;2022-07-21T02:42:21;20.23;;;5.67;;
595;SDS011;19946;49.306;11.350;2022-07-21T02:45:21;5.60;;;2.83;;
595;SDS011;19946;49.306;11.350;2022-07-21T02:48:22;5.87;;;2.83;;
595;SDS011;19946;49.306;11.350;2022-07-21T02:51:22;19.23;;;5.07;;
595;SDS011;19946;49.306;11.350;2022-07-21T02:54:23;24.90;;;6.10;;
595;SDS011;19946;49.306;11.350;2022-07-21T02:57:23;6.87;;;2.97;;
595;SDS011;19946;49.306;11.350;2022-07-21T03:00:23;9.80;;;3.07;;
595;SDS011;19946;49.306;11.350;2022-07-21T03:03:25;31.60;;;6.73;;
595;SDS011;19946;49.306;11.350;2022-07-21T03:06:27;27.63;;;6.17;;
595;SDS011;19946;49.306;11.350;2022-07-21T03:09:27;6.13;;;2.73;;
595;SDS011;19946;49.306;11.350;2022-07-21T03:12:27;7.70;;;2.83;;
595;SDS011;19946;49.306;11.350;2022-07-21T03:15:28;16.40;;;4.10;;
595;SDS011;19946;49.306;11.350;2022-07-21T03:18:28;21.17;;;5.17;;
595;SDS011;19946;49.306;11.350;2022-07-21T03:21:28;8.67;;;2.83;;
595;SDS011;19946;49.306;11.350;2022-07-21T03:24:29;8.43;;;2.93;;
595;SDS011;19946;49.306;11.350;2022-07-21T03:27:30;24.13;;;5.63;;
595;SDS011;19946;49.306;11.350;2022-07-21T03:30:30;31.47;;;7.00;;
595;SDS011;19946;49.306;11.350;2022-07-21T03:33:30;20.57;;;5.03;;
595;SDS011;19946;49.306;11.350;2022-07-21T03:36:31;7.20;;;3.10;;
595;SDS011;19946;49.306;11.350;2022-07-21T03:39:31;19.80;;;5.00;;
595;SDS011;19946;49.306;11.350;2022-07-21T03:42:32;23.23;;;5.60;;
595;SDS011;19946;49.306;11.350;2022-07-21T03:45:33;13.93;;;3.83;;
595;SDS011;19946;49.306;11.350;2022-07-21T03:48:35;11.90;;;3.43;;
595;SDS011;19946;49.306;11.350;2022-07-21T03:51:35;19.50;;;4.37;;
595;SDS011;19946;49.306;11.350;2022-07-21T03:54:36;19.73;;;4.80;;
595;SDS011;19946;49.306;11.350;2022-07-21T03:57:37;8.50;;;2.63;;
595;SDS011;19946;49.306;11.350;2022-07-21T04:00:47;23.60;;;5.20;;
595;SDS011;19946;49.306;11.350;2022-07-21T04:03:49;18.53;;;4.63;;
595;SDS011;19946;49.306;11.350;2022-07-21T04:06:49;10.73;;;3.40;;
595;SDS011;19946;49.306;11.350;2022-07-21T04:09:49;8.83;;;2.93;;
595;SDS011;19946;49.306;11.350;2022-07-21T04:12:50;18.70;;;4.67;;
595;SDS011;19946;49.306;11.350;2022-07-21T04:15:50;22.93;;;6.07;;
595;SDS011;19946;49.306;11.350;2022-07-21T04:18:51;7.27;;;3.23;;
595;SDS011;19946;49.306;11.350;2022-07-21T04:21:51;7.10;;;3.10;;
595;SDS011;19946;49.306;11.350;2022-07-21T04:24:52;16.30;;;4.47;;
595;SDS011;19946;49.306;11.350;2022-07-21T04:27:52;24.03;;;6.07;;
595;SDS011;19946;49.306;11.350;2022-07-21T04:30:52;6.60;;;2.67;;
595;SDS011;19946;49.306;11.350;2022-07-21T04:33:53;6.50;;;2.60;;
595;SDS011;19946;49.306;11.350;2022-07-21T04:36:53;15.77;;;4.27;;
595;SDS011;19946;49.306;11.350;2022-07-21T04:39:54;19.13;;;4.97;;
595;SDS011;19946;49.306;11.350;2022-07-21T04:42:54;15.03;;;4.10;;
595;SDS011;19946;49.306;11.350;2022-07-21T04:45:54;4.87;;;2.27;;
595;SDS011;19946;49.306;11.350;2022-07-21T04:48:55;7.40;;;2.80;;
595;SDS011;19946;49.306;11.350;2022-07-21T04:51:55;22.77;;;5.53;;
595;SDS011;19946;49.306;11.350;2022-07-21T04:54:56;19.30;;;4.70;;
595;SDS011;19946;49.306;11.350;2022-07-21T04:57:56;5.60;;;2.20;;
595;SDS011;19946;49.306;11.350;2022-07-21T05:00:58;8.30;;;2.90;;
595;SDS011;19946;49.306;11.350;2022-07-21T05:03:58;20.77;;;5.13;;
595;SDS011;19946;49.306;11.350;2022-07-21T05:06:59;19.93;;;5.17;;
595;SDS011;19946;49.306;11.350;2022-07-21T05:09:59;5.93;;;2.57;;
595;SDS011;19946;49.306;11.350;2022-07-21T05:13:03;13.07;;;3.77;;
595;SDS011;19946;49.306;11.350;2022-07-21T05:16:04;15.60;;;4.23;;
595;SDS011;19946;49.306;11.350;2022-07-21T05:19:04;6.90;;;2.83;;
595;SDS011;19946;49.306;11.350;2022-07-21T05:22:06;11.67;;;3.53;;
595;SDS011;19946;49.306;11.350;2022-07-21T05:25:06;12.97;;;3.77;;
595;SDS011;19946;49.306;11.350;2022-07-21T05:28:07;21.33;;;5.30;;
595;SDS011;19946;49.306;11.350;2022-07-21T05:31:07;7.93;;;2.87;;
595;SDS011;19946;49.306;11.350;2022-07-21T05:34:08;7.20;;;2.83;;
595;SDS011;19946;49.306;11.350;2022-07-21T05:37:09;11.83;;;3.07;;
595;SDS011;19946;49.306;11.350;2022-07-21T05:40:10;18.23;;;4.27;;
595;SDS011;19946;49.306;11.350;2022-07-21T05:43:11;8.50;;;2.73;;
595;SDS011;19946;49.306;11.350;2022-07-21T05:46:12;4.50;;;1.67;;
595;SDS011;19946;49.306;11.350;2022-07-21T05:49:13;8.30;;;2.57;;
595;SDS011;19946;49.306;11.350;2022-07-21T05:52:13;22.00;;;5.53;;
595;SDS011;19946;49.306;11.350;2022-07-21T05:55:13;13.73;;;3.53;;
595;SDS011;19946;49.306;11.350;2022-07-21T05:58:14;5.67;;;2.30;;
595;SDS011;19946;49.306;11.350;2022-07-21T06:01:14;7.23;;;2.57;;
595;SDS011;19946;49.306;11.350;2022-07-21T06:04:16;15.67;;;4.90;;
595;SDS011;19946;49.306;11.350;2022-07-21T06:07:17;8.83;;;3.60;;
595;SDS011;19946;49.306;11.350;2022-07-21T06:10:17;5.77;;;4.67;;
595;SDS011;19946;49.306;11.350;2022-07-21T06:13:17;10.80;;;4.97;;
595;SDS011;19946;49.306;11.350;2022-07-21T06:16:18;22.07;;;7.13;;
595;SDS011;19946;49.306;11.350;2022-07-21T06:19:18;12.43;;;6.20;;
595;SDS011;19946;49.306;11.350;2022-07-21T06:22:18;8.33;;;3.87;;
595;SDS011;19946;49.306;11.350;2022-07-21T06:25:19;5.13;;;3.57;;
595;SDS011;19946;49.306;11.350;2022-07-21T06:28:20;20.27;;;6.33;;
595;SDS011;19946;49.306;11.350;2022-07-21T06:31:21;20.30;;;6.23;;
595;SDS011;19946;49.306;11.350;2022-07-21T06:34:22;7.50;;;4.80;;
595;SDS011;19946;49.306;11.350;2022-07-21T06:37:22;5.83;;;4.30;;
595;SDS011;19946;49.306;11.350;2022-07-21T06:40:22;20.03;;;6.37;;
595;SDS011;19946;49.306;11.350;2022-07-21T06:43:23;25.40;;;7.77;;
595;SDS011;19946;49.306;11.350;2022-07-21T06:46:23;7.60;;;4.60;;
595;SDS011;19946;49.306;11.350;2022-07-21T06:49:23;9.03;;;4.23;;
595;SDS011;19946;49.306;11.350;2022-07-21T06:52:25;10.33;;;4.37;;
595;SDS011;19946;49.306;11.350;2022-07-21T06:55:25;21.97;;;7.30;;
595;SDS011;19946;49.306;11.350;2022-07-21T06:58:26;10.63;;;5.00;;
595;SDS011;19946;49.306;11.350;2022-07-21T07:01:27;7.97;;;5.00;;
595;SDS011;19946;49.306;11.350;2022-07-21T07:04:27;13.13;;;6.57;;
595;SDS011;19946;49.306;11.350;2022-07-21T07:07:28;22.00;;;8.13;;
595;SDS011;19946;49.306;11.350;2022-07-21T07:10:30;7.07;;;6.30;;
595;SDS011;19946;49.306;11.350;2022-07-21T07:13:30;25.70;;;9.73;;
595;SDS011;19946;49.306;11.350;2022-07-21T07:16:31;28.57;;;10.97;;
595;SDS011;19946;49.306;11.350;2022-07-21T07:19:31;41.17;;;13.23;;
595;SDS011;19946;49.306;11.350;2022-07-21T07:22:32;12.20;;;11.07;;
595;SDS011;19946;49.306;11.350;2022-07-21T07:25:32;10.57;;;9.70;;
595;SDS011;19946;49.306;11.350;2022-07-21T07:28:33;18.10;;;12.90;;
595;SDS011;19946;49.306;11.350;2022-07-21T07:31:33;20.90;;;10.20;;
595;SDS011;19946;49.306;11.350;2022-07-21T07:34:34;15.23;;;7.27;;
595;SDS011;19946;49.306;11.350;2022-07-21T07:37:35;10.30;;;7.03;;
595;SDS011;19946;49.306;11.350;2022-07-21T07:40:36;12.97;;;9.20;;
595;SDS011;19946;49.306;11.350;2022-07-21T07:43:37;29.67;;;9.63;;
595;SDS011;19946;49.306;11.350;2022-07-21T07:46:37;17.57;;;9.40;;
595;SDS011;19946;49.306;11.350;2022-07-21T07:49:37;10.70;;;6.87;;
595;SDS011;19946;49.306;11.350;2022-07-21T07:52:38;6.60;;;4.80;;
595;SDS011;19946;49.306;11.350;2022-07-21T07:55:40;17.50;;;7.73;;
595;SDS011;19946;49.306;11.350;2022-07-21T07:58:41;21.43;;;8.40;;
595;SDS011;19946;49.306;11.350;2022-07-21T08:01:42;11.87;;;6.20;;
595;SDS011;19946;49.306;11.350;2022-07-21T08:04:42;21.30;;;8.60;;
595;SDS011;19946;49.306;11.350;2022-07-21T08:07:42;15.17;;;7.30;;
595;SDS011;19946;49.306;11.350;2022-07-21T08:10:43;23.00;;;9.03;;
595;SDS011;19946;49.306;11.350;2022-07-21T08:13:45;11.50;;;7.60;;
595;SDS011;19946;49.306;11.350;2022-07-21T08:16:46;9.47;;;7.07;;
595;SDS011;19946;49.306;11.350;2022-07-21T08:19:46;9.63;;;5.27;;
595;SDS011;19946;49.306;11.350;2022-07-21T08:22:47;20.33;;;7.17;;
595;SDS011;19946;49.306;11.350;2022-07-21T08:25:47;17.80;;;6.03;;
595;SDS011;19946;49.306;11.350;2022-07-21T08:28:47;7.17;;;5.20;;
595;SDS011;19946;49.306;11.350;2022-07-21T08:31:49;8.67;;;5.00;;
595;SDS011;19946;49.306;11.350;2022-07-21T08:34:49;23.20;;;7.43;;
595;SDS011;19946;49.306;11.350;2022-07-21T08:38:23;28.80;;;8.77;;
595;SDS011;19946;49.306;11.350;2022-07-21T08:41:18;21.27;;;7.27;;
595;SDS011;19946;49.306;11.350;2022-07-21T08:44:22;6.40;;;4.60;;
595;SDS011;19946;49.306;11.350;2022-07-21T08:47:24;6.17;;;4.73;;
595;SDS011;19946;49.306;11.350;2022-07-21T08:50:28;19.67;;;7.17;;
595;SDS011;19946;49.306;11.350;2022-07-21T08:53:31;22.97;;;9.50;;
595;SDS011;19946;49.306;11.350;2022-07-21T08:56:32;14.53;;;8.53;;
595;SDS011;19946;49.306;11.350;2022-07-21T08:59:32;9.87;;;5.00;;
595;SDS011;19946;49.306;11.350;2022-07-21T09:02:34;27.27;;;6.90;;
595;SDS011;19946;49.306;11.350;2022-07-21T09:05:35;17.43;;;5.27;;
595;SDS011;19946;49.306;11.350;2022-07-21T09:08:46;11.53;;;4.00;;
595;SDS011;19946;49.306;11.350;2022-07-21T09:11:48;22.10;;;6.63;;
595;SDS011;19946;49.306;11.350;2022-07-21T09:14:49;13.20;;;5.60;;
595;SDS011;19946;49.306;11.350;2022-07-21T09:21:22;8.40;;;5.47;;
595;SDS011;19946;49.306;11.350;2022-07-21T09:24:24;22.17;;;6.60;;
595;SDS011;19946;49.306;11.350;2022-07-21T09:27:29;13.27;;;5.50;;
595;SDS011;19946;49.306;11.350;2022-07-21T09:30:32;10.83;;;6.93;;
595;SDS011;19946;49.306;11.350;2022-07-21T09:34:06;14.53;;;7.00;;
595;SDS011;19946;49.306;11.350;2022-07-21T09:37:13;39.60;;;10.73;;
595;SDS011;19946;49.306;11.350;2022-07-21T09:40:14;17.47;;;7.37;;
595;SDS011;19946;49.306;11.350;2022-07-21T09:43:31;9.60;;;5.80;;
595;SDS011;19946;49.306;11.350;2022-07-21T09:46:41;12.47;;;7.63;;
595;SDS011;19946;49.306;11.350;2022-07-21T09:49:42;25.67;;;10.00;;
595;SDS011;19946;49.306;11.350;2022-07-21T09:52:43;31.30;;;10.70;;
595;SDS011;19946;49.306;11.350;2022-07-21T09:55:47;11.03;;;5.97;;
595;SDS011;19946;49.306;11.350;2022-07-21T09:58:48;9.90;;;6.73;;
595;SDS011;19946;49.306;11.350;2022-07-21T10:01:50;25.77;;;9.90;;
595;SDS011;19946;49.306;11.350;2022-07-21T10:04:59;24.50;;;10.70;;
595;SDS011;19946;49.306;11.350;2022-07-21T10:08:03;12.57;;;8.67;;
595;SDS011;19946;49.306;11.350;2022-07-21T10:11:04;33.37;;;12.77;;
595;SDS011;19946;49.306;11.350;2022-07-21T10:14:05;33.40;;;13.03;;
595;SDS011;19946;49.306;11.350;2022-07-21T10:17:09;12.83;;;10.63;;
595;SDS011;19946;49.306;11.350;2022-07-21T10:20:16;24.77;;;13.60;;
595;SDS011;19946;49.306;11.350;2022-07-21T10:23:40;45.30;;;15.57;;
595;SDS011;19946;49.306;11.350;2022-07-21T10:30:06;26.80;;;13.10;;
595;SDS011;19946;49.306;11.350;2022-07-21T10:33:09;29.57;;;14.70;;
595;SDS011;19946;49.306;11.350;2022-07-21T10:36:10;11.40;;;11.10;;
595;SDS011;19946;49.306;11.350;2022-07-21T10:39:31;49.07;;;16.60;;
595;SDS011;19946;49.306;11.350;2022-07-21T10:42:35;18.07;;;14.77;;
595;SDS011;19946;49.306;11.350;2022-07-21T10:45:41;11.87;;;11.47;;
595;SDS011;19946;49.306;11.350;2022-07-21T10:48:46;32.83;;;15.63;;
595;SDS011;19946;49.306;11.350;2022-07-21T10:51:47;27.03;;;15.37;;
595;SDS011;19946;49.306;11.350;2022-07-21T10:55:30;14.27;;;13.73;;
595;SDS011;19946;49.306;11.350;2022-07-21T11:04:14;46.97;;;15.80;;
595;SDS011;19946;49.306;11.350;2022-07-21T11:07:20;12.60;;;11.30;;
595;SDS011;19946;49.306;11.350;2022-07-21T11:10:20;14.73;;;12.20;;
595;SDS011;19946;49.306;11.350;2022-07-21T11:13:21;37.07;;;14.47;;
595;SDS011;19946;49.306;11.350;2022-07-21T11:19:45;33.27;;;18.17;;
595;SDS011;19946;49.306;11.350;2022-07-21T11:22:52;15.17;;;14.37;;
595;SDS011;19946;49.306;11.350;2022-07-21T11:25:54;15.67;;;14.90;;
595;SDS011;19946;49.306;11.350;2022-07-21T11:29:05;17.00;;;15.43;;
595;SDS011;19946;49.306;11.350;2022-07-21T11:32:06;19.30;;;16.13;;
595;SDS011;19946;49.306;11.350;2022-07-21T11:35:07;14.57;;;13.67;;
595;SDS011;19946;49.306;11.350;2022-07-21T11:38:08;13.53;;;12.80;;
595;SDS011;19946;49.306;11.350;2022-07-21T11:41:26;27.90;;;16.80;;
595;SDS011;19946;49.306;11.350;2022-07-21T11:44:27;11.90;;;11.57;;
595;SDS011;19946;49.306;11.350;2022-07-21T11:47:28;27.70;;;16.23;;
595;SDS011;19946;49.306;11.350;2022-07-21T11:50:29;11.80;;;11.50;;
595;SDS011;19946;49.306;11.350;2022-07-21T11:53:31;14.43;;;14.00;;
595;SDS011;19946;49.306;11.350;2022-07-21T11:56:40;13.90;;;13.50;;
595;SDS011;19946;49.306;11.350;2022-07-21T11:59:42;14.07;;;13.63;;
595;SDS011;19946;49.306;11.350;2022-07-21T12:02:43;13.20;;;12.83;;
595;SDS011;19946;49.306;11.350;2022-07-21T12:05:44;12.97;;;12.60;;
595;SDS011;19946;49.306;11.350;2022-07-21T12:08:44;13.83;;;13.40;;
595;SDS011;19946;49.306;11.350;2022-07-21T12:11:45;15.77;;;15.20;;
595;SDS011;19946;49.306;11.350;2022-07-21T12:14:47;14.73;;;14.27;;
595;SDS011;19946;49.306;11.350;2022-07-21T12:17:51;15.13;;;14.50;;
595;SDS011;19946;49.306;11.350;2022-07-21T12:21:02;16.67;;;15.40;;
595;SDS011;19946;49.306;11.350;2022-07-21T12:24:04;16.50;;;15.20;;
595;SDS011;19946;49.306;11.350;2022-07-21T12:27:12;16.27;;;14.97;;
595;SDS011;19946;49.306;11.350;2022-07-21T12:33:53;17.43;;;15.70;;
595;SDS011;19946;49.306;11.350;2022-07-21T12:36:55;15.97;;;14.43;;
595;SDS011;19946;49.306;11.350;2022-07-21T12:40:02;23.77;;;16.80;;
595;SDS011;19946;49.306;11.350;2022-07-21T12:43:05;21.07;;;17.80;;
595;SDS011;19946;49.306;11.350;2022-07-21T12:46:15;15.57;;;14.27;;
595;SDS011;19946;49.306;11.350;2022-07-21T12:49:17;22.13;;;16.50;;
595;SDS011;19946;49.306;11.350;2022-07-21T12:52:18;12.40;;;12.10;;
595;SDS011;19946;49.306;11.350;2022-07-21T12:55:18;12.93;;;12.57;;
595;SDS011;19946;49.306;11.350;2022-07-21T12:58:19;12.73;;;12.37;;
595;SDS011;19946;49.306;11.350;2022-07-21T13:01:19;14.23;;;13.60;;
595;SDS011;19946;49.306;11.350;2022-07-21T13:04:21;13.50;;;13.03;;
595;SDS011;19946;49.306;11.350;2022-07-21T13:07:21;13.87;;;13.47;;
595;SDS011;19946;49.306;11.350;2022-07-21T13:10:22;13.43;;;13.07;;
595;SDS011;19946;49.306;11.350;2022-07-21T13:13:22;15.40;;;14.27;;
595;SDS011;19946;49.306;11.350;2022-07-21T13:16:23;17.43;;;16.13;;
595;SDS011;19946;49.306;11.350;2022-07-21T13:19:24;17.50;;;15.70;;
595;SDS011;19946;49.306;11.350;2022-07-21T13:22:25;14.20;;;13.50;;
595;SDS011;19946;49.306;11.350;2022-07-21T13:25:25;14.17;;;13.77;;
595;SDS011;19946;49.306;11.350;2022-07-21T13:28:25;14.60;;;13.80;;
595;SDS011;19946;49.306;11.350;2022-07-21T13:31:27;13.20;;;12.80;;
595;SDS011;19946;49.306;11.350;2022-07-21T13:34:27;16.43;;;15.90;;
595;SDS011;19946;49.306;11.350;2022-07-21T13:37:27;12.47;;;12.07;;
595;SDS011;19946;49.306;11.350;2022-07-21T13:40:28;13.97;;;13.17;;
595;SDS011;19946;49.306;11.350;2022-07-21T13:43:28;16.93;;;15.73;;
595;SDS011;19946;49.306;11.350;2022-07-21T13:46:29;13.70;;;13.20;;
595;SDS011;19946;49.306;11.350;2022-07-21T13:49:29;13.27;;;12.80;;
595;SDS011;19946;49.306;11.350;2022-07-21T13:52:31;13.40;;;12.80;;
595;SDS011;19946;49.306;11.350;2022-07-21T13:55:32;17.23;;;15.67;;
595;SDS011;19946;49.306;11.350;2022-07-21T13:58:33;13.53;;;12.70;;
595;SDS011;19946;49.306;11.350;2022-07-21T14:01:35;12.33;;;11.83;;
595;SDS011;19946;49.306;11.350;2022-07-21T14:04:35;13.93;;;13.00;;
595;SDS011;19946;49.306;11.350;2022-07-21T14:07:35;18.40;;;14.80;;
595;SDS011;19946;49.306;11.350;2022-07-21T14:10:36;16.93;;;14.97;;
595;SDS011;19946;49.306;11.350;2022-07-21T14:13:36;30.53;;;16.60;;
595;SDS011;19946;49.306;11.350;2022-07-21T14:16:37;12.50;;;12.00;;
595;SDS011;19946;49.306;11.350;2022-07-21T14:19:37;14.73;;;14.27;;
595;SDS011;19946;49.306;11.350;2022-07-21T14:22:38;14.97;;;13.60;;
595;SDS011;19946;49.306;11.350;2022-07-21T14:25:38;12.20;;;11.57;;
595;SDS011;19946;49.306;11.350;2022-07-21T14:28:39;11.00;;;10.60;;
595;SDS011;19946;49.306;11.350;2022-07-21T14:31:40;11.37;;;10.70;;
595;SDS011;19946;49.306;11.350;2022-07-21T14:34:40;14.83;;;12.37;;
595;SDS011;19946;49.306;11.350;2022-07-21T14:37:40;14.67;;;13.83;;
595;SDS011;19946;49.306;11.350;2022-07-21T14:40:41;11.13;;;10.70;;
595;SDS011;19946;49.306;11.350;2022-07-21T14:43:41;11.10;;;10.70;;
595;SDS011;19946;49.306;11.350;2022-07-21T14:46:41;9.80;;;9.53;;
595;SDS011;19946;49.306;11.350;2022-07-21T14:49:42;12.23;;;10.73;;
595;SDS011;19946;49.306;11.350;2022-07-21T14:52:42;10.87;;;10.23;;
595;SDS011;19946;49.306;11.350;2022-07-21T14:55:43;10.13;;;9.53;;
595;SDS011;19946;49.306;11.350;2022-07-21T14:58:43;9.90;;;9.37;;
595;SDS011;19946;49.306;11.350;2022-07-21T15:01:43;12.73;;;11.97;;
595;SDS011;19946;49.306;11.350;2022-07-21T15:04:44;13.37;;;12.17;;
595;SDS011;19946;49.306;11.350;2022-07-21T15:07:44;10.07;;;9.67;;
595;SDS011;19946;49.306;11.350;2022-07-21T15:10:45;10.07;;;9.60;;
595;SDS011;19946;49.306;11.350;2022-07-21T15:13:46;10.97;;;10.40;;
595;SDS011;19946;49.306;11.350;2022-07-21T15:16:48;12.73;;;11.17;;
595;SDS011;19946;49.306;11.350;2022-07-21T15:19:48;11.80;;;11.10;;
595;SDS011;19946;49.306;11.350;2022-07-21T15:22:48;9.73;;;9.20;;
595;SDS011;19946;49.306;11.350;2022-07-21T15:25:49;8.60;;;8.30;;
595;SDS011;19946;49.306;11.350;2022-07-21T15:28:49;9.30;;;8.83;;
595;SDS011;19946;49.306;11.350;2022-07-21T15:31:50;15.07;;;10.57;;
595;SDS011;19946;49.306;11.350;2022-07-21T15:34:50;10.33;;;9.63;;
595;SDS011;19946;49.306;11.350;2022-07-21T15:37:50;8.60;;;8.23;;
595;SDS011;19946;49.306;11.350;2022-07-21T15:40:51;8.73;;;8.33;;
595;SDS011;19946;49.306;11.350;2022-07-21T15:43:51;9.67;;;8.90;;
595;SDS011;19946;49.306;11.350;2022-07-21T15:46:52;14.00;;;10.70;;
595;SDS011;19946;49.306;11.350;2022-07-21T15:49:52;9.00;;;8.57;;
595;SDS011;19946;49.306;11.350;2022-07-21T15:52:52;10.03;;;9.37;;
595;SDS011;19946;49.306;11.350;2022-07-21T15:55:53;8.50;;;8.10;;
595;SDS011;19946;49.306;11.350;2022-07-21T15:58:53;8.77;;;8.17;;
595;SDS011;19946;49.306;11.350;2022-07-21T16:02:13;8.30;;;8.00;;
595;SDS011;19946;49.306;11.350;2022-07-21T16:05:19;8.73;;;7.97;;
595;SDS011;19946;49.306;11.350;2022-07-21T16:08:21;8.63;;;8.23;;
595;SDS011;19946;49.306;11.350;2022-07-21T16:11:21;7.20;;;7.00;;
595;SDS011;19946;49.306;11.350;2022-07-21T16:14:22;7.60;;;7.30;;
595;SDS011;19946;49.306;11.350;2022-07-21T16:17:22;10.40;;;8.77;;
595;SDS011;19946;49.306;11.350;2022-07-21T16:20:24;9.77;;;9.30;;
595;SDS011;19946;49.306;11.350;2022-07-21T16:23:25;17.50;;;11.50;;
595;SDS011;19946;49.306;11.350;2022-07-21T16:26:27;7.90;;;7.50;;
595;SDS011;19946;49.306;11.350;2022-07-21T16:29:27;9.87;;;8.33;;
595;SDS011;19946;49.306;11.350;2022-07-21T16:32:27;10.20;;;9.53;;
595;SDS011;19946;49.306;11.350;2022-07-21T16:35:28;8.47;;;8.13;;
595;SDS011;19946;49.306;11.350;2022-07-21T16:38:28;8.20;;;7.90;;
595;SDS011;19946;49.306;11.350;2022-07-21T16:41:28;7.80;;;7.50;;
595;SDS011;19946;49.306;11.350;2022-07-21T16:44:29;11.17;;;10.00;;
595;SDS011;19946;49.306;11.350;2022-07-21T16:47:29;8.33;;;8.03;;
595;SDS011;19946;49.306;11.350;2022-07-21T16:50:30;8.00;;;7.67;;
595;SDS011;19946;49.306;11.350;2022-07-21T16:53:30;9.00;;;8.50;;
595;SDS011;19946;49.306;11.350;2022-07-21T16:56:31;8.20;;;7.70;;
595;SDS011;19946;49.306;11.350;2022-07-21T16:59:31;10.97;;;10.20;;
595;SDS011;19946;49.306;11.350;2022-07-21T17:02:31;7.50;;;7.30;;
595;SDS011;19946;49.306;11.350;2022-07-21T17:05:32;7.43;;;7.23;;
595;SDS011;19946;49.306;11.350;2022-07-21T17:08:32;8.03;;;7.53;;
595;SDS011;19946;49.306;11.350;2022-07-21T17:11:33;9.17;;;8.37;;
595;SDS011;19946;49.306;11.350;2022-07-21T17:14:34;8.53;;;8.10;;
595;SDS011;19946;49.306;11.350;2022-07-21T17:17:34;7.10;;;6.90;;
595;SDS011;19946;49.306;11.350;2022-07-21T17:20:35;8.07;;;7.67;;
595;SDS011;19946;49.306;11.350;2022-07-21T17:23:36;7.90;;;7.30;;
595;SDS011;19946;49.306;11.350;2022-07-21T17:26:37;9.90;;;9.13;;
595;SDS011;19946;49.306;11.350;2022-07-21T17:29:38;7.73;;;7.40;;
595;SDS011;19946;49.306;11.350;2022-07-21T17:32:38;7.20;;;6.90;;
595;SDS011;19946;49.306;11.350;2022-07-21T17:35:38;7.23;;;6.97;;
595;SDS011;19946;49.306;11.350;2022-07-21T17:38:39;9.43;;;8.53;;
595;SDS011;19946;49.306;11.350;2022-07-21T17:41:39;7.47;;;7.20;;
595;SDS011;19946;49.306;11.350;2022-07-21T17:44:39;7.67;;;7.27;;
595;SDS011;19946;49.306;11.350;2022-07-21T17:47:40;7.07;;;6.90;;
595;SDS011;19946;49.306;11.350;2022-07-21T17:50:41;7.80;;;7.30;;
595;SDS011;19946;49.306;11.350;2022-07-21T17:53:41;9.40;;;8.87;;
595;SDS011;19946;49.306;11.350;2022-07-21T17:56:41;6.93;;;6.70;;
595;SDS011;19946;49.306;11.350;2022-07-21T17:59:44;7.20;;;6.90;;
595;SDS011;19946;49.306;11.350;2022-07-21T18:02:45;6.87;;;6.63;;
595;SDS011;19946;49.306;11.350;2022-07-21T18:05:47;8.60;;;8.03;;
595;SDS011;19946;49.306;11.350;2022-07-21T18:08:47;7.90;;;7.63;;
595;SDS011;19946;49.306;11.350;2022-07-21T18:11:48;6.77;;;6.50;;
595;SDS011;19946;49.306;11.350;2022-07-21T18:14:49;6.47;;;6.27;;
595;SDS011;19946;49.306;11.350;2022-07-21T18:17:49;9.57;;;7.70;;
595;SDS011;19946;49.306;11.350;2022-07-21T18:20:50;6.70;;;6.57;;
595;SDS011;19946;49.306;11.350;2022-07-21T18:23:50;6.20;;;6.10;;
595;SDS011;19946;49.306;11.350;2022-07-21T18:26:50;6.53;;;6.40;;
595;SDS011;19946;49.306;11.350;2022-07-21T18:29:51;6.23;;;6.10;;
595;SDS011;19946;49.306;11.350;2022-07-21T18:32:51;7.27;;;6.97;;
595;SDS011;19946;49.306;11.350;2022-07-21T18:35:51;6.00;;;5.90;;